sensor_id;sensor_type;location;lat;lon;timestamp;pressure;altitude;pressure_sealevel;temperature;humidity
6829;BME280;17930;48.592;8.868;2023-09-19T00:00:07;96545.09;;;15.46;100.00
6829;BME280;17930;48.592;8.868;2023-09-19T00:02:33;96553.78;;;15.55;100.00
6829;BME280;17930;48.592;8.868;2023-09-19T00:05:02;96556.19;;;15.35;100.00
6829;BME280;17930;48.592;8.868;2023-09-19T00:07:30;96550.91;;;15.27;100.00
6829;BME280;17930;48.592;8.868;2023-09-19T00:09:57;96556.97;;;15.36;100.00
6829;BME280;17930;48.592;8.868;2023-09-19T00:12:23;96554.03;;;15.29;100.00
6829;BME280;17930;48.592;8.868;2023-09-19T00:14:52;96560.50;;;15.23;100.00
6829;BME280;17930;48.592;8.868;2023-09-19T00:17:19;96559.56;;;15.19;100.00
6829;BME280;17930;48.592;8.868;2023-09-19T00:19:46;96562.47;;;15.17;100.00
6829;BME280;17930;48.592;8.868;2023-09-19T00:22:17;96564.09;;;15.43;100.00
6829;BME280;17930;48.592;8.868;2023-09-19T00:24:44;96554.97;;;15.49;100.00
6829;BME280;17930;48.592;8.868;2023-09-19T00:27:11;96548.31;;;15.43;100.00
6829;BME280;17930;48.592;8.868;2023-09-19T00:29:38;96554.69;;;15.42;100.00
6829;BME280;17930;48.592;8.868;2023-09-19T00:32:07;96557.31;;;15.42;100.00
6829;BME280;17930;48.592;8.868;2023-09-19T00:34:34;96565.19;;;15.42;100.00
6829;BME280;17930;48.592;8.868;2023-09-19T00:37:01;96565.47;;;15.33;100.00
6829;BME280;17930;48.592;8.868;2023-09-19T00:39:28;96569.06;;;15.45;100.00
6829;BME280;17930;48.592;8.868;2023-09-19T00:41:57;96575.06;;;15.37;100.00
6829;BME280;17930;48.592;8.868;2023-09-19T00:44:23;96566.88;;;15.30;100.00
6829;BME280;17930;48.592;8.868;2023-09-19T00:46:50;96565.59;;;15.28;100.00
6829;BME280;17930;48.592;8.868;2023-09-19T00:49:18;96567.59;;;15.22;100.00
6829;BME280;17930;48.592;8.868;2023-09-19T00:51:48;96565.91;;;15.26;100.00
6829;BME280;17930;48.592;8.868;2023-09-19T00:54:16;96569.09;;;15.15;100.00
6829;BME280;17930;48.592;8.868;2023-09-19T00:56:45;96568.63;;;15.13;100.00
6829;BME280;17930;48.592;8.868;2023-09-19T00:59:14;96569.03;;;14.98;100.00
6829;BME280;17930;48.592;8.868;2023-09-19T01:01:41;96559.97;;;15.12;100.00
6829;BME280;17930;48.592;8.868;2023-09-19T01:04:08;96568.59;;;15.04;100.00
6829;BME280;17930;48.592;8.868;2023-09-19T01:06:36;96566.56;;;14.93;100.00
6829;BME280;17930;48.592;8.868;2023-09-19T01:09:05;96570.31;;;14.79;100.00
6829;BME280;17930;48.592;8.868;2023-09-19T01:11:35;96569.78;;;14.98;100.00
6829;BME280;17930;48.592;8.868;2023-09-19T01:14:14;96573.53;;;14.97;100.00
6829;BME280;17930;48.592;8.868;2023-09-19T01:16:49;96572.41;;;14.98;100.00
6829;BME280;17930;48.592;8.868;2023-09-19T01:22:37;96580.06;;;15.17;100.00
6829;BME280;17930;48.592;8.868;2023-09-19T01:25:33;96576.75;;;15.25;100.00
6829;BME280;17930;48.592;8.868;2023-09-19T01:28:14;96592.97;;;15.27;100.00
6829;BME280;17930;48.592;8.868;2023-09-19T01:30:51;96590.66;;;15.34;100.00
6829;BME280;17930;48.592;8.868;2023-09-19T01:33:19;96595.47;;;15.32;100.00
6829;BME280;17930;48.592;8.868;2023-09-19T01:35:46;96587.72;;;15.27;100.00
6829;BME280;17930;48.592;8.868;2023-09-19T01:38:14;96593.91;;;15.31;100.00
6829;BME280;17930;48.592;8.868;2023-09-19T01:40:42;96594.22;;;15.29;100.00
6829;BME280;17930;48.592;8.868;2023-09-19T01:43:13;96598.81;;;15.24;100.00
6829;BME280;17930;48.592;8.868;2023-09-19T01:45:49;96597.88;;;15.20;100.00
6829;BME280;17930;48.592;8.868;2023-09-19T01:48:22;96592.94;;;15.18;100.00
6829;BME280;17930;48.592;8.868;2023-09-19T01:50:55;96598.59;;;15.12;100.00
6829;BME280;17930;48.592;8.868;2023-09-19T01:53:27;96593.63;;;15.02;100.00
6829;BME280;17930;48.592;8.868;2023-09-19T01:55:57;96599.91;;;14.92;100.00
6829;BME280;17930;48.592;8.868;2023-09-19T01:58:31;96610.16;;;14.72;100.00
6829;BME280;17930;48.592;8.868;2023-09-19T02:01:01;96614.69;;;14.58;100.00
6829;BME280;17930;48.592;8.868;2023-09-19T02:03:31;96612.69;;;14.55;100.00
6829;BME280;17930;48.592;8.868;2023-09-19T02:06:00;96615.47;;;14.59;100.00
6829;BME280;17930;48.592;8.868;2023-09-19T02:08:27;96618.53;;;14.52;100.00
6829;BME280;17930;48.592;8.868;2023-09-19T02:10:54;96619.72;;;14.46;100.00
6829;BME280;17930;48.592;8.868;2023-09-19T02:13:22;96621.63;;;14.33;100.00
6829;BME280;17930;48.592;8.868;2023-09-19T02:15:50;96618.03;;;14.29;100.00
6829;BME280;17930;48.592;8.868;2023-09-19T02:18:18;96605.16;;;14.40;100.00
6829;BME280;17930;48.592;8.868;2023-09-19T02:20:45;96614.66;;;14.28;100.00
6829;BME280;17930;48.592;8.868;2023-09-19T02:23:13;96615.19;;;14.17;100.00
6829;BME280;17930;48.592;8.868;2023-09-19T02:25:41;96612.50;;;14.08;100.00
6829;BME280;17930;48.592;8.868;2023-09-19T02:28:09;96628.78;;;14.19;100.00
6829;BME280;17930;48.592;8.868;2023-09-19T02:30:37;96625.47;;;14.13;100.00
6829;BME280;17930;48.592;8.868;2023-09-19T02:33:04;96621.19;;;14.04;100.00
6829;BME280;17930;48.592;8.868;2023-09-19T02:35:32;96621.59;;;14.11;100.00
6829;BME280;17930;48.592;8.868;2023-09-19T02:38:01;96618.28;;;14.19;100.00
6829;BME280;17930;48.592;8.868;2023-09-19T02:40:31;96630.47;;;14.36;100.00
6829;BME280;17930;48.592;8.868;2023-09-19T02:43:01;96622.94;;;14.22;100.00
6829;BME280;17930;48.592;8.868;2023-09-19T02:45:28;96625.78;;;14.33;100.00
6829;BME280;17930;48.592;8.868;2023-09-19T02:47:56;96630.09;;;14.30;100.00
6829;BME280;17930;48.592;8.868;2023-09-19T02:50:23;96637.25;;;14.37;100.00
6829;BME280;17930;48.592;8.868;2023-09-19T02:52:52;96628.59;;;14.59;100.00
6829;BME280;17930;48.592;8.868;2023-09-19T02:55:19;96638.19;;;14.63;100.00
6829;BME280;17930;48.592;8.868;2023-09-19T02:57:47;96635.81;;;14.53;100.00
6829;BME280;17930;48.592;8.868;2023-09-19T03:00:15;96634.88;;;14.49;100.00
6829;BME280;17930;48.592;8.868;2023-09-19T03:02:42;96631.16;;;14.50;100.00
6829;BME280;17930;48.592;8.868;2023-09-19T03:05:09;96634.69;;;14.46;100.00
6829;BME280;17930;48.592;8.868;2023-09-19T03:07:37;96640.53;;;14.43;100.00
6829;BME280;17930;48.592;8.868;2023-09-19T03:10:06;96642.25;;;14.47;100.00
6829;BME280;17930;48.592;8.868;2023-09-19T03:12:34;96641.41;;;14.60;100.00
6829;BME280;17930;48.592;8.868;2023-09-19T03:15:00;96644.03;;;14.82;100.00
6829;BME280;17930;48.592;8.868;2023-09-19T03:17:27;96650.94;;;15.00;100.00
6829;BME280;17930;48.592;8.868;2023-09-19T03:19:54;96650.88;;;14.91;100.00
6829;BME280;17930;48.592;8.868;2023-09-19T03:22:21;96647.84;;;14.98;100.00
6829;BME280;17930;48.592;8.868;2023-09-19T03:24:48;96649.47;;;14.85;100.00
6829;BME280;17930;48.592;8.868;2023-09-19T03:27:16;96651.22;;;14.68;100.00
6829;BME280;17930;48.592;8.868;2023-09-19T03:29:42;96650.25;;;14.64;100.00
6829;BME280;17930;48.592;8.868;2023-09-19T03:32:09;96656.56;;;14.63;100.00
6829;BME280;17930;48.592;8.868;2023-09-19T03:34:37;96649.19;;;14.65;100.00
6829;BME280;17930;48.592;8.868;2023-09-19T03:37:09;96664.50;;;14.72;100.00
6829;BME280;17930;48.592;8.868;2023-09-19T03:39:36;96660.91;;;14.89;100.00
6829;BME280;17930;48.592;8.868;2023-09-19T03:42:03;96652.88;;;14.64;100.00
6829;BME280;17930;48.592;8.868;2023-09-19T03:44:32;96660.16;;;14.67;100.00
6829;BME280;17930;48.592;8.868;2023-09-19T03:46:58;96652.88;;;14.86;100.00
6829;BME280;17930;48.592;8.868;2023-09-19T03:49:25;96651.47;;;14.88;100.00
6829;BME280;17930;48.592;8.868;2023-09-19T03:51:52;96646.06;;;14.63;100.00
6829;BME280;17930;48.592;8.868;2023-09-19T03:54:18;96654.19;;;14.53;100.00
6829;BME280;17930;48.592;8.868;2023-09-19T03:56:45;96645.72;;;14.34;100.00
6829;BME280;17930;48.592;8.868;2023-09-19T03:59:12;96651.22;;;14.46;100.00
6829;BME280;17930;48.592;8.868;2023-09-19T04:01:40;96637.81;;;14.48;100.00
6829;BME280;17930;48.592;8.868;2023-09-19T04:04:08;96645.38;;;14.49;100.00
6829;BME280;17930;48.592;8.868;2023-09-19T04:06:34;96653.63;;;14.56;100.00
6829;BME280;17930;48.592;8.868;2023-09-19T04:09:02;96643.50;;;14.72;100.00
6829;BME280;17930;48.592;8.868;2023-09-19T04:11:29;96649.53;;;14.72;100.00
6829;BME280;17930;48.592;8.868;2023-09-19T04:13:56;96646.84;;;14.85;100.00
6829;BME280;17930;48.592;8.868;2023-09-19T04:16:23;96653.22;;;14.93;100.00
6829;BME280;17930;48.592;8.868;2023-09-19T04:18:51;96643.66;;;14.97;100.00
6829;BME280;17930;48.592;8.868;2023-09-19T04:21:17;96644.50;;;15.06;100.00
6829;BME280;17930;48.592;8.868;2023-09-19T04:23:45;96639.84;;;15.03;100.00
6829;BME280;17930;48.592;8.868;2023-09-19T04:26:11;96647.84;;;14.98;100.00
6829;BME280;17930;48.592;8.868;2023-09-19T04:28:38;96654.03;;;15.02;100.00
6829;BME280;17930;48.592;8.868;2023-09-19T04:31:06;96655.59;;;15.03;100.00
6829;BME280;17930;48.592;8.868;2023-09-19T04:33:34;96649.84;;;15.01;100.00
6829;BME280;17930;48.592;8.868;2023-09-19T04:36:02;96656.63;;;14.93;100.00
6829;BME280;17930;48.592;8.868;2023-09-19T04:38:31;96665.16;;;14.99;100.00
6829;BME280;17930;48.592;8.868;2023-09-19T04:40:57;96656.66;;;15.02;100.00
6829;BME280;17930;48.592;8.868;2023-09-19T04:43:25;96654.81;;;15.02;100.00
6829;BME280;17930;48.592;8.868;2023-09-19T04:45:52;96658.69;;;15.05;100.00
6829;BME280;17930;48.592;8.868;2023-09-19T04:48:21;96662.69;;;15.02;100.00
6829;BME280;17930;48.592;8.868;2023-09-19T04:50:49;96677.38;;;15.03;100.00
6829;BME280;17930;48.592;8.868;2023-09-19T04:53:17;96671.94;;;15.22;100.00
6829;BME280;17930;48.592;8.868;2023-09-19T04:55:49;96679.91;;;15.17;100.00
6829;BME280;17930;48.592;8.868;2023-09-19T04:58:16;96679.34;;;15.20;100.00
6829;BME280;17930;48.592;8.868;2023-09-19T05:00:44;96676.81;;;15.15;100.00
6829;BME280;17930;48.592;8.868;2023-09-19T05:03:11;96687.63;;;15.13;100.00
6829;BME280;17930;48.592;8.868;2023-09-19T05:05:38;96687.03;;;15.16;100.00
6829;BME280;17930;48.592;8.868;2023-09-19T05:08:06;96686.09;;;15.12;100.00
6829;BME280;17930;48.592;8.868;2023-09-19T05:10:35;96689.97;;;15.15;100.00
6829;BME280;17930;48.592;8.868;2023-09-19T05:13:03;96698.84;;;15.19;100.00
6829;BME280;17930;48.592;8.868;2023-09-19T05:15:30;96693.34;;;15.15;100.00
6829;BME280;17930;48.592;8.868;2023-09-19T05:17:57;96698.31;;;15.17;100.00
6829;BME280;17930;48.592;8.868;2023-09-19T05:20:24;96699.41;;;15.16;100.00
6829;BME280;17930;48.592;8.868;2023-09-19T05:22:58;96705.28;;;15.13;100.00
6829;BME280;17930;48.592;8.868;2023-09-19T05:25:27;96701.28;;;15.45;100.00
6829;BME280;17930;48.592;8.868;2023-09-19T05:27:57;96715.16;;;15.38;100.00
6829;BME280;17930;48.592;8.868;2023-09-19T05:30:24;96714.56;;;15.40;100.00
6829;BME280;17930;48.592;8.868;2023-09-19T05:32:53;96720.91;;;15.18;100.00
6829;BME280;17930;48.592;8.868;2023-09-19T05:35:20;96721.59;;;15.10;100.00
6829;BME280;17930;48.592;8.868;2023-09-19T05:37:48;96728.91;;;15.13;100.00
6829;BME280;17930;48.592;8.868;2023-09-19T05:40:16;96721.81;;;15.13;100.00
6829;BME280;17930;48.592;8.868;2023-09-19T05:42:43;96727.13;;;15.22;100.00
6829;BME280;17930;48.592;8.868;2023-09-19T05:45:12;96736.09;;;15.21;100.00
6829;BME280;17930;48.592;8.868;2023-09-19T05:47:39;96742.66;;;15.32;100.00
6829;BME280;17930;48.592;8.868;2023-09-19T05:50:17;96743.66;;;15.22;100.00
6829;BME280;17930;48.592;8.868;2023-09-19T05:52:51;96750.88;;;15.17;100.00
6829;BME280;17930;48.592;8.868;2023-09-19T05:55:18;96750.03;;;15.21;100.00
6829;BME280;17930;48.592;8.868;2023-09-19T05:57:49;96757.69;;;15.18;100.00
6829;BME280;17930;48.592;8.868;2023-09-19T06:00:18;96767.63;;;15.21;100.00
6829;BME280;17930;48.592;8.868;2023-09-19T06:02:50;96760.41;;;15.26;100.00
6829;BME280;17930;48.592;8.868;2023-09-19T06:05:17;96764.69;;;15.44;100.00
6829;BME280;17930;48.592;8.868;2023-09-19T06:07:44;96757.69;;;15.39;100.00
6829;BME280;17930;48.592;8.868;2023-09-19T06:10:11;96761.22;;;15.35;100.00
6829;BME280;17930;48.592;8.868;2023-09-19T06:12:38;96769.91;;;15.36;100.00
6829;BME280;17930;48.592;8.868;2023-09-19T06:15:05;96775.31;;;15.39;100.00
6829;BME280;17930;48.592;8.868;2023-09-19T06:17:35;96778.75;;;15.48;100.00
6829;BME280;17930;48.592;8.868;2023-09-19T06:20:04;96777.72;;;15.57;100.00
6829;BME280;17930;48.592;8.868;2023-09-19T06:22:36;96786.44;;;15.66;100.00
6829;BME280;17930;48.592;8.868;2023-09-19T06:25:03;96780.75;;;15.73;100.00
6829;BME280;17930;48.592;8.868;2023-09-19T06:27:30;96774.88;;;15.76;100.00
6829;BME280;17930;48.592;8.868;2023-09-19T06:29:57;96786.50;;;15.83;100.00
6829;BME280;17930;48.592;8.868;2023-09-19T06:32:26;96776.00;;;15.83;100.00
6829;BME280;17930;48.592;8.868;2023-09-19T06:34:55;96782.97;;;15.79;100.00
6829;BME280;17930;48.592;8.868;2023-09-19T06:37:26;96779.13;;;15.85;100.00
6829;BME280;17930;48.592;8.868;2023-09-19T06:39:53;96771.72;;;15.95;100.00
6829;BME280;17930;48.592;8.868;2023-09-19T06:42:20;96773.75;;;16.07;100.00
6829;BME280;17930;48.592;8.868;2023-09-19T06:44:48;96772.22;;;16.14;100.00
6829;BME280;17930;48.592;8.868;2023-09-19T06:47:14;96784.13;;;16.42;100.00
6829;BME280;17930;48.592;8.868;2023-09-19T06:49:42;96775.47;;;16.58;100.00
6829;BME280;17930;48.592;8.868;2023-09-19T06:52:11;96784.78;;;16.64;100.00
6829;BME280;17930;48.592;8.868;2023-09-19T06:54:37;96779.97;;;16.92;100.00
6829;BME280;17930;48.592;8.868;2023-09-19T06:57:05;96771.75;;;17.35;100.00
6829;BME280;17930;48.592;8.868;2023-09-19T06:59:35;96767.63;;;17.71;100.00
6829;BME280;17930;48.592;8.868;2023-09-19T07:02:02;96762.25;;;17.88;100.00
6829;BME280;17930;48.592;8.868;2023-09-19T07:04:31;96759.91;;;17.95;100.00
6829;BME280;17930;48.592;8.868;2023-09-19T07:06:58;96755.97;;;18.18;100.00
6829;BME280;17930;48.592;8.868;2023-09-19T07:09:26;96752.44;;;18.54;100.00
6829;BME280;17930;48.592;8.868;2023-09-19T07:11:53;96759.34;;;18.27;100.00
6829;BME280;17930;48.592;8.868;2023-09-19T07:14:20;96770.53;;;18.24;100.00
6829;BME280;17930;48.592;8.868;2023-09-19T07:16:47;96779.56;;;18.72;100.00
6829;BME280;17930;48.592;8.868;2023-09-19T07:19:17;96782.44;;;18.58;100.00
6829;BME280;17930;48.592;8.868;2023-09-19T07:21:44;96783.81;;;19.05;100.00
6829;BME280;17930;48.592;8.868;2023-09-19T07:24:13;96768.56;;;19.02;100.00
6829;BME280;17930;48.592;8.868;2023-09-19T07:26:41;96780.91;;;19.51;100.00
6829;BME280;17930;48.592;8.868;2023-09-19T07:29:07;96770.88;;;19.44;100.00
6829;BME280;17930;48.592;8.868;2023-09-19T07:31:34;96774.19;;;19.53;100.00
6829;BME280;17930;48.592;8.868;2023-09-19T07:34:01;96776.50;;;19.54;100.00
6829;BME280;17930;48.592;8.868;2023-09-19T07:36:29;96775.97;;;20.05;100.00
6829;BME280;17930;48.592;8.868;2023-09-19T07:38:56;96775.47;;;19.79;100.00
6829;BME280;17930;48.592;8.868;2023-09-19T07:41:23;96776.91;;;19.77;100.00
6829;BME280;17930;48.592;8.868;2023-09-19T07:43:52;96778.53;;;19.69;100.00
6829;BME280;17930;48.592;8.868;2023-09-19T07:46:19;96776.81;;;19.85;100.00
6829;BME280;17930;48.592;8.868;2023-09-19T07:48:47;96773.13;;;20.10;100.00
6829;BME280;17930;48.592;8.868;2023-09-19T07:51:14;96763.41;;;20.89;100.00
6829;BME280;17930;48.592;8.868;2023-09-19T07:53:41;96761.97;;;21.46;100.00
6829;BME280;17930;48.592;8.868;2023-09-19T07:56:09;96757.28;;;21.00;100.00
6829;BME280;17930;48.592;8.868;2023-09-19T07:58:39;96754.75;;;21.04;100.00
6829;BME280;17930;48.592;8.868;2023-09-19T08:01:09;96765.06;;;20.93;100.00
6829;BME280;17930;48.592;8.868;2023-09-19T08:03:36;96763.13;;;21.33;100.00
6829;BME280;17930;48.592;8.868;2023-09-19T08:06:06;96767.59;;;21.29;100.00
6829;BME280;17930;48.592;8.868;2023-09-19T08:08:33;96769.38;;;20.86;100.00
6829;BME280;17930;48.592;8.868;2023-09-19T08:11:03;96774.81;;;21.16;100.00
6829;BME280;17930;48.592;8.868;2023-09-19T08:13:36;96775.03;;;21.23;100.00
6829;BME280;17930;48.592;8.868;2023-09-19T08:16:03;96775.44;;;22.26;100.00
6829;BME280;17930;48.592;8.868;2023-09-19T08:18:33;96771.28;;;23.12;100.00
6829;BME280;17930;48.592;8.868;2023-09-19T08:20:59;96773.47;;;22.72;100.00
6829;BME280;17930;48.592;8.868;2023-09-19T08:23:26;96776.78;;;21.59;100.00
6829;BME280;17930;48.592;8.868;2023-09-19T08:25:56;96783.34;;;21.49;100.00
6829;BME280;17930;48.592;8.868;2023-09-19T08:28:23;96787.38;;;21.59;100.00
6829;BME280;17930;48.592;8.868;2023-09-19T08:30:50;96785.44;;;22.02;100.00
6829;BME280;17930;48.592;8.868;2023-09-19T08:33:16;96784.25;;;22.79;100.00
6829;BME280;17930;48.592;8.868;2023-09-19T08:35:44;96787.94;;;22.41;100.00
6829;BME280;17930;48.592;8.868;2023-09-19T08:38:11;96777.44;;;23.54;100.00
6829;BME280;17930;48.592;8.868;2023-09-19T08:40:40;96781.66;;;23.36;100.00
6829;BME280;17930;48.592;8.868;2023-09-19T08:43:08;96783.16;;;23.97;100.00
6829;BME280;17930;48.592;8.868;2023-09-19T08:45:35;96774.09;;;24.23;100.00
6829;BME280;17930;48.592;8.868;2023-09-19T08:48:15;96781.00;;;24.76;100.00
6829;BME280;17930;48.592;8.868;2023-09-19T08:50:49;96795.97;;;24.10;100.00
6829;BME280;17930;48.592;8.868;2023-09-19T08:53:24;96810.47;;;22.62;100.00
6829;BME280;17930;48.592;8.868;2023-09-19T08:55:53;96809.19;;;22.71;100.00
6829;BME280;17930;48.592;8.868;2023-09-19T08:58:21;96803.03;;;22.37;100.00
6829;BME280;17930;48.592;8.868;2023-09-19T09:00:54;96803.84;;;22.71;100.00
6829;BME280;17930;48.592;8.868;2023-09-19T09:03:21;96808.09;;;22.11;100.00
6829;BME280;17930;48.592;8.868;2023-09-19T09:05:51;96807.94;;;21.34;100.00
6829;BME280;17930;48.592;8.868;2023-09-19T09:08:19;96808.69;;;22.51;100.00
6829;BME280;17930;48.592;8.868;2023-09-19T09:10:47;96796.44;;;22.15;100.00
6829;BME280;17930;48.592;8.868;2023-09-19T09:13:14;96802.19;;;22.48;100.00
6829;BME280;17930;48.592;8.868;2023-09-19T09:15:43;96802.84;;;22.61;100.00
6829;BME280;17930;48.592;8.868;2023-09-19T09:18:10;96810.16;;;22.48;100.00
6829;BME280;17930;48.592;8.868;2023-09-19T09:20:37;96816.47;;;23.27;100.00
6829;BME280;17930;48.592;8.868;2023-09-19T09:23:05;96813.31;;;24.93;100.00
6829;BME280;17930;48.592;8.868;2023-09-19T09:25:48;96808.84;;;23.64;100.00
6829;BME280;17930;48.592;8.868;2023-09-19T09:28:21;96809.53;;;23.04;100.00
6829;BME280;17930;48.592;8.868;2023-09-19T09:30:51;96809.84;;;23.37;100.00
6829;BME280;17930;48.592;8.868;2023-09-19T09:33:18;96810.31;;;24.47;100.00
6829;BME280;17930;48.592;8.868;2023-09-19T09:35:49;96807.56;;;23.76;100.00
6829;BME280;17930;48.592;8.868;2023-09-19T09:38:19;96797.09;;;24.54;100.00
6829;BME280;17930;48.592;8.868;2023-09-19T09:40:47;96799.94;;;24.93;100.00
6829;BME280;17930;48.592;8.868;2023-09-19T09:43:29;96805.63;;;23.17;100.00
6829;BME280;17930;48.592;8.868;2023-09-19T09:46:21;96802.66;;;23.60;100.00
6829;BME280;17930;48.592;8.868;2023-09-19T09:49:05;96798.03;;;24.94;100.00
6829;BME280;17930;48.592;8.868;2023-09-19T09:51:45;96796.47;;;24.89;100.00
6829;BME280;17930;48.592;8.868;2023-09-19T09:54:16;96786.75;;;25.33;100.00
6829;BME280;17930;48.592;8.868;2023-09-19T09:56:55;96784.91;;;26.56;100.00
6829;BME280;17930;48.592;8.868;2023-09-19T09:59:43;96797.81;;;25.35;100.00
6829;BME280;17930;48.592;8.868;2023-09-19T10:02:12;96801.13;;;24.00;100.00
6829;BME280;17930;48.592;8.868;2023-09-19T10:04:39;96807.09;;;23.52;100.00
6829;BME280;17930;48.592;8.868;2023-09-19T10:07:27;96801.66;;;24.31;100.00
6829;BME280;17930;48.592;8.868;2023-09-19T10:10:00;96797.09;;;25.71;100.00
6829;BME280;17930;48.592;8.868;2023-09-19T10:12:43;96783.72;;;26.10;100.00
6829;BME280;17930;48.592;8.868;2023-09-19T10:15:11;96786.66;;;26.38;100.00
6829;BME280;17930;48.592;8.868;2023-09-19T10:17:43;96780.84;;;25.17;100.00
6829;BME280;17930;48.592;8.868;2023-09-19T10:20:13;96797.69;;;23.58;100.00
6829;BME280;17930;48.592;8.868;2023-09-19T10:23:05;96803.53;;;22.58;100.00
6829;BME280;17930;48.592;8.868;2023-09-19T10:25:37;96790.81;;;22.66;100.00
6829;BME280;17930;48.592;8.868;2023-09-19T10:28:06;96788.81;;;22.45;100.00
6829;BME280;17930;48.592;8.868;2023-09-19T10:30:37;96786.66;;;23.60;100.00
6829;BME280;17930;48.592;8.868;2023-09-19T10:33:05;96773.03;;;25.71;100.00
6829;BME280;17930;48.592;8.868;2023-09-19T10:35:32;96762.44;;;27.55;100.00
6829;BME280;17930;48.592;8.868;2023-09-19T10:38:00;96762.53;;;27.97;96.87
6829;BME280;17930;48.592;8.868;2023-09-19T10:40:28;96766.09;;;26.49;98.80
6829;BME280;17930;48.592;8.868;2023-09-19T10:43:02;96771.88;;;26.54;97.57
6829;BME280;17930;48.592;8.868;2023-09-19T10:45:33;96771.63;;;26.77;96.68
6829;BME280;17930;48.592;8.868;2023-09-19T10:48:00;96772.00;;;27.53;97.79
6829;BME280;17930;48.592;8.868;2023-09-19T10:50:31;96760.81;;;27.37;99.27
6829;BME280;17930;48.592;8.868;2023-09-19T10:53:00;96775.88;;;27.62;90.12
6829;BME280;17930;48.592;8.868;2023-09-19T10:55:31;96779.59;;;26.63;91.81
6829;BME280;17930;48.592;8.868;2023-09-19T10:58:02;96778.28;;;25.64;98.30
6829;BME280;17930;48.592;8.868;2023-09-19T11:00:51;96787.06;;;24.73;100.00
6829;BME280;17930;48.592;8.868;2023-09-19T11:03:19;96778.19;;;23.95;100.00
6829;BME280;17930;48.592;8.868;2023-09-19T11:06:09;96784.56;;;23.69;100.00
6829;BME280;17930;48.592;8.868;2023-09-19T11:08:55;96793.84;;;22.99;100.00
6829;BME280;17930;48.592;8.868;2023-09-19T11:11:40;96778.06;;;24.33;100.00
6829;BME280;17930;48.592;8.868;2023-09-19T11:14:41;96776.38;;;24.73;100.00
6829;BME280;17930;48.592;8.868;2023-09-19T11:17:40;96777.97;;;23.63;100.00
6829;BME280;17930;48.592;8.868;2023-09-19T11:20:30;96778.66;;;23.00;100.00
6829;BME280;17930;48.592;8.868;2023-09-19T11:23:20;96766.66;;;23.09;100.00
6829;BME280;17930;48.592;8.868;2023-09-19T11:25:53;96766.19;;;23.64;100.00
6829;BME280;17930;48.592;8.868;2023-09-19T11:28:30;96772.34;;;24.57;100.00
6829;BME280;17930;48.592;8.868;2023-09-19T11:31:40;96767.16;;;24.19;100.00
6829;BME280;17930;48.592;8.868;2023-09-19T11:34:39;96773.09;;;23.46;100.00
6829;BME280;17930;48.592;8.868;2023-09-19T11:40:25;96772.94;;;24.21;100.00
6829;BME280;17930;48.592;8.868;2023-09-19T11:42:53;96769.25;;;24.80;100.00
6829;BME280;17930;48.592;8.868;2023-09-19T11:48:28;96758.75;;;25.56;100.00
6829;BME280;17930;48.592;8.868;2023-09-19T11:50:56;96769.34;;;25.13;100.00
6829;BME280;17930;48.592;8.868;2023-09-19T11:53:31;96755.88;;;25.39;100.00
6829;BME280;17930;48.592;8.868;2023-09-19T11:56:04;96745.72;;;26.94;100.00
6829;BME280;17930;48.592;8.868;2023-09-19T11:58:37;96753.41;;;26.39;100.00
6829;BME280;17930;48.592;8.868;2023-09-19T12:01:05;96746.19;;;25.64;100.00
6829;BME280;17930;48.592;8.868;2023-09-19T12:03:41;96758.59;;;23.84;100.00
6829;BME280;17930;48.592;8.868;2023-09-19T12:06:12;96756.00;;;23.88;100.00
6829;BME280;17930;48.592;8.868;2023-09-19T12:08:40;96751.28;;;24.26;100.00
6829;BME280;17930;48.592;8.868;2023-09-19T12:11:13;96744.03;;;25.04;100.00
6829;BME280;17930;48.592;8.868;2023-09-19T12:13:42;96746.13;;;24.62;100.00
6829;BME280;17930;48.592;8.868;2023-09-19T12:16:14;96742.56;;;23.21;100.00
6829;BME280;17930;48.592;8.868;2023-09-19T12:18:44;96743.78;;;24.09;100.00
6829;BME280;17930;48.592;8.868;2023-09-19T12:21:22;96741.00;;;24.02;100.00
6829;BME280;17930;48.592;8.868;2023-09-19T12:24:06;96726.78;;;26.06;100.00
6829;BME280;17930;48.592;8.868;2023-09-19T12:26:39;96727.81;;;25.19;100.00
6829;BME280;17930;48.592;8.868;2023-09-19T12:29:11;96738.53;;;23.49;100.00
6829;BME280;17930;48.592;8.868;2023-09-19T12:31:50;96740.41;;;23.26;100.00
6829;BME280;17930;48.592;8.868;2023-09-19T12:34:21;96743.53;;;22.26;100.00
6829;BME280;17930;48.592;8.868;2023-09-19T12:36:48;96734.63;;;22.03;100.00
6829;BME280;17930;48.592;8.868;2023-09-19T12:39:24;96728.69;;;23.94;100.00
6829;BME280;17930;48.592;8.868;2023-09-19T12:41:53;96723.25;;;25.95;100.00
6829;BME280;17930;48.592;8.868;2023-09-19T12:44:20;96700.81;;;28.11;100.00
6829;BME280;17930;48.592;8.868;2023-09-19T12:46:50;96707.69;;;28.36;96.33
6829;BME280;17930;48.592;8.868;2023-09-19T12:49:21;96703.81;;;28.47;94.61
6829;BME280;17930;48.592;8.868;2023-09-19T12:51:48;96699.38;;;29.26;91.13
6829;BME280;17930;48.592;8.868;2023-09-19T12:54:16;96704.13;;;28.88;89.29
6829;BME280;17930;48.592;8.868;2023-09-19T12:56:44;96705.25;;;29.00;87.61
6829;BME280;17930;48.592;8.868;2023-09-19T12:59:13;96694.66;;;27.62;90.45
6829;BME280;17930;48.592;8.868;2023-09-19T13:01:41;96697.72;;;28.40;91.84
6829;BME280;17930;48.592;8.868;2023-09-19T13:04:13;96706.53;;;26.66;92.21
6829;BME280;17930;48.592;8.868;2023-09-19T13:06:45;96695.66;;;24.79;100.00
6829;BME280;17930;48.592;8.868;2023-09-19T13:09:14;96696.19;;;26.07;100.00
6829;BME280;17930;48.592;8.868;2023-09-19T13:11:42;96683.53;;;28.22;97.77
6829;BME280;17930;48.592;8.868;2023-09-19T13:14:20;96689.25;;;28.52;88.30
6829;BME280;17930;48.592;8.868;2023-09-19T13:16:59;96686.81;;;28.95;88.88
6829;BME280;17930;48.592;8.868;2023-09-19T13:19:42;96688.16;;;27.90;89.01
6829;BME280;17930;48.592;8.868;2023-09-19T13:22:37;96688.03;;;27.21;89.73
6829;BME280;17930;48.592;8.868;2023-09-19T13:25:07;96684.88;;;26.95;92.50